createdAt,value
2023-02-14T00:01:20.721Z,100.00
2023-02-14T00:03:49.569Z,100.00
2023-02-14T00:06:17.280Z,100.00
2023-02-14T00:08:45.013Z,100.00
2023-02-14T00:11:13.962Z,100.00
2023-02-14T00:14:01.670Z,100.00
2023-02-14T00:16:29.272Z,100.00
2023-02-14T00:19:05.947Z,100.00
2023-02-14T00:21:36.177Z,100.00
2023-02-14T00:24:09.179Z,100.00
2023-02-14T00:26:38.829Z,100.00
2023-02-14T00:29:08.496Z,100.00
2023-02-14T00:31:37.489Z,100.00
2023-02-14T00:34:06.398Z,100.00
2023-02-14T00:36:34.143Z,100.00
2023-02-14T00:39:08.327Z,100.00
2023-02-14T00:41:38.350Z,100.00
2023-02-14T00:44:06.661Z,100.00
2023-02-14T00:46:35.024Z,100.00
2023-02-14T00:49:02.716Z,100.00
2023-02-14T00:51:31.057Z,100.00
2023-02-14T00:53:58.594Z,100.00
2023-02-14T00:56:26.303Z,100.00
2023-02-14T00:58:53.668Z,100.00
2023-02-14T01:01:21.131Z,100.00
2023-02-14T01:03:48.726Z,100.00
2023-02-14T01:06:16.471Z,100.00
2023-02-14T01:08:44.034Z,100.00
2023-02-14T01:11:14.220Z,100.00
2023-02-14T01:13:42.817Z,100.00
2023-02-14T01:16:16.450Z,100.00
2023-02-14T01:18:44.684Z,100.00
2023-02-14T01:21:24.299Z,100.00
2023-02-14T01:23:55.405Z,100.00
2023-02-14T01:26:24.312Z,100.00
2023-02-14T01:28:52.165Z,100.00
2023-02-14T01:31:22.651Z,100.00
2023-02-14T01:33:50.666Z,100.00
2023-02-14T01:36:30.313Z,100.00
2023-02-14T01:39:02.360Z,100.00
2023-02-14T01:41:32.344Z,100.00
2023-02-14T01:44:01.556Z,100.00
2023-02-14T01:46:32.700Z,100.00
2023-02-14T01:49:09.565Z,100.00
2023-02-14T01:51:41.456Z,100.00
2023-02-14T01:54:10.085Z,100.00
2023-02-14T01:56:43.754Z,100.00
2023-02-14T01:59:19.801Z,100.00
2023-02-14T02:01:50.140Z,100.00
2023-02-14T02:04:32.788Z,100.00
2023-02-14T02:07:05.921Z,100.00
2023-02-14T02:09:42.390Z,100.00
2023-02-14T02:12:10.140Z,100.00
2023-02-14T02:14:37.705Z,100.00
2023-02-14T02:17:11.207Z,100.00
2023-02-14T02:20:16.213Z,100.00
2023-02-14T02:23:17.367Z,100.00
2023-02-14T02:25:47.693Z,100.00
2023-02-14T02:28:40.856Z,100.00
2023-02-14T02:31:32.623Z,100.00
2023-02-14T02:34:18.336Z,100.00
2023-02-14T02:37:02.727Z,100.00
2023-02-14T02:39:58.917Z,100.00
2023-02-14T02:42:42.171Z,100.00
2023-02-14T02:45:33.990Z,100.00
2023-02-14T02:48:10.610Z,100.00
2023-02-14T02:51:05.264Z,100.00
2023-02-14T02:53:35.098Z,100.00
2023-02-14T02:56:28.506Z,100.00
2023-02-14T02:59:20.659Z,100.00
2023-02-14T03:02:11.833Z,100.00
2023-02-14T03:04:53.232Z,100.00
2023-02-14T03:07:37.068Z,100.00
2023-02-14T03:10:16.962Z,100.00
2023-02-14T03:12:54.627Z,100.00
2023-02-14T03:15:27.950Z,100.00
2023-02-14T03:18:16.877Z,100.00
2023-02-14T03:20:54.890Z,100.00
2023-02-14T03:23:29.046Z,100.00
2023-02-14T03:26:15.187Z,100.00
2023-02-14T03:29:04.572Z,100.00
2023-02-14T03:31:54.572Z,100.00
2023-02-14T03:34:45.918Z,100.00
2023-02-14T03:37:52.545Z,100.00
2023-02-14T03:40:27.405Z,100.00
2023-02-14T03:43:00.803Z,100.00
2023-02-14T03:45:34.819Z,100.00
2023-02-14T03:48:08.753Z,100.00
2023-02-14T03:50:40.493Z,100.00
2023-02-14T03:53:10.345Z,100.00
2023-02-14T03:55:49.300Z,100.00
2023-02-14T03:58:26.645Z,100.00
2023-02-14T04:01:01.126Z,100.00
2023-02-14T04:03:31.813Z,100.00
2023-02-14T04:06:00.562Z,100.00
2023-02-14T04:08:29.627Z,100.00
2023-02-14T04:11:00.805Z,100.00
2023-02-14T04:13:28.853Z,100.00
2023-02-14T04:15:56.299Z,100.00
2023-02-14T04:18:42.373Z,100.00
2023-02-14T04:21:11.135Z,100.00
2023-02-14T04:23:38.685Z,100.00
2023-02-14T04:26:06.619Z,100.00
2023-02-14T04:28:34.491Z,100.00
2023-02-14T04:31:04.156Z,100.00
2023-02-14T04:33:32.299Z,100.00
2023-02-14T04:36:01.147Z,100.00
2023-02-14T04:38:28.822Z,100.00
2023-02-14T04:40:56.491Z,100.00
2023-02-14T04:43:24.083Z,100.00
2023-02-14T04:45:51.498Z,100.00
2023-02-14T04:48:19.028Z,100.00
2023-02-14T04:50:52.641Z,100.00
2023-02-14T04:53:20.649Z,100.00
2023-02-14T04:55:50.011Z,100.00
2023-02-14T04:58:18.446Z,100.00
2023-02-14T05:00:45.935Z,100.00
2023-02-14T05:03:13.515Z,100.00
2023-02-14T05:05:40.776Z,100.00
2023-02-14T05:08:08.013Z,100.00
2023-02-14T05:10:35.279Z,100.00
2023-02-14T05:13:02.508Z,100.00
2023-02-14T05:15:29.655Z,100.00
2023-02-14T05:18:01.660Z,100.00
2023-02-14T05:20:29.788Z,100.00
2023-02-14T05:22:59.945Z,100.00
2023-02-14T05:25:27.587Z,100.00
2023-02-14T05:27:54.863Z,100.00
2023-02-14T05:30:26.671Z,100.00
2023-02-14T05:32:54.789Z,100.00
2023-02-14T05:35:22.352Z,100.00
2023-02-14T05:37:50.535Z,100.00
2023-02-14T05:40:18.068Z,100.00
2023-02-14T05:42:45.793Z,100.00
2023-02-14T05:45:13.353Z,100.00
2023-02-14T05:47:41.157Z,100.00
2023-02-14T05:50:09.151Z,100.00
2023-02-14T05:52:37.406Z,100.00
2023-02-14T05:55:05.111Z,100.00
2023-02-14T05:57:32.737Z,100.00
2023-02-14T06:00:00.178Z,100.00
2023-02-14T06:02:27.711Z,100.00
2023-02-14T06:04:55.138Z,100.00
2023-02-14T06:07:22.750Z,100.00
2023-02-14T06:09:49.995Z,100.00
2023-02-14T06:12:17.305Z,100.00
2023-02-14T06:14:45.225Z,100.00
2023-02-14T06:17:12.694Z,100.00
2023-02-14T06:19:39.961Z,100.00
2023-02-14T06:22:07.107Z,100.00
2023-02-14T06:24:34.385Z,100.00
2023-02-14T06:27:01.843Z,100.00
2023-02-14T06:29:29.458Z,100.00
2023-02-14T06:31:57.135Z,100.00
2023-02-14T06:34:24.600Z,100.00
2023-02-14T06:36:51.966Z,100.00
2023-02-14T06:39:19.217Z,100.00
2023-02-14T06:41:46.689Z,100.00
2023-02-14T06:44:14.127Z,100.00
2023-02-14T06:46:41.458Z,100.00
2023-02-14T06:49:10.340Z,100.00
2023-02-14T06:51:37.790Z,100.00
2023-02-14T06:54:05.209Z,100.00
2023-02-14T06:56:32.523Z,100.00
2023-02-14T06:58:59.833Z,100.00
2023-02-14T07:01:27.274Z,100.00
2023-02-14T07:03:54.649Z,100.00
2023-02-14T07:06:22.263Z,100.00
2023-02-14T07:08:49.560Z,100.00
2023-02-14T07:11:16.986Z,100.00
2023-02-14T07:13:44.438Z,100.00
2023-02-14T07:16:12.064Z,100.00
2023-02-14T07:18:39.542Z,100.00
2023-02-14T07:21:07.406Z,100.00
2023-02-14T07:23:35.513Z,100.00
2023-02-14T07:26:03.751Z,100.00
2023-02-14T07:28:31.249Z,100.00
2023-02-14T07:31:01.391Z,100.00
2023-02-14T07:33:29.127Z,100.00
2023-02-14T07:35:56.877Z,100.00
2023-02-14T07:38:24.891Z,100.00
2023-02-14T07:40:54.350Z,98.95
2023-02-14T07:43:21.774Z,95.42
2023-02-14T07:45:49.290Z,91.65
2023-02-14T07:48:16.905Z,88.53
2023-02-14T07:50:44.550Z,85.45
2023-02-14T07:53:12.113Z,81.99
2023-02-14T07:55:40.736Z,79.61
2023-02-14T07:58:08.269Z,77.94
2023-02-14T08:00:35.827Z,74.61
2023-02-14T08:03:03.329Z,72.98
2023-02-14T08:05:30.596Z,69.08
2023-02-14T08:07:57.779Z,68.59
2023-02-14T08:10:25.183Z,68.03
2023-02-14T08:13:01.617Z,67.33
2023-02-14T08:15:53.180Z,67.53
2023-02-14T08:18:23.267Z,66.00
2023-02-14T08:20:50.926Z,64.59
2023-02-14T08:23:19.742Z,64.57
2023-02-14T08:25:49.522Z,64.05
2023-02-14T08:28:22.492Z,64.48
2023-02-14T08:30:51.210Z,64.81
2023-02-14T08:33:19.475Z,65.15
2023-02-14T08:35:47.247Z,65.01
2023-02-14T08:38:14.836Z,65.39
2023-02-14T08:40:42.636Z,65.08
2023-02-14T08:43:10.278Z,63.78
2023-02-14T08:45:38.299Z,63.38
2023-02-14T08:48:09.077Z,62.90
2023-02-14T08:50:37.590Z,61.46
2023-02-14T08:53:13.477Z,59.74
2023-02-14T08:55:41.353Z,58.90
2023-02-14T08:58:09.129Z,57.88
2023-02-14T09:00:36.827Z,55.80
2023-02-14T09:03:04.532Z,56.69
2023-02-14T09:05:32.934Z,55.20
2023-02-14T09:08:02.915Z,54.78
2023-02-14T09:10:30.498Z,55.59
2023-02-14T09:12:57.878Z,55.68
2023-02-14T09:15:25.260Z,55.57
2023-02-14T09:17:52.534Z,56.17
2023-02-14T09:20:20.055Z,55.47
2023-02-14T09:22:48.810Z,55.54
2023-02-14T09:25:17.517Z,56.28
2023-02-14T09:27:44.946Z,57.01
2023-02-14T09:30:13.486Z,57.32
2023-02-14T09:32:41.039Z,58.04
2023-02-14T09:35:20.637Z,57.81
2023-02-14T09:37:48.098Z,59.33
2023-02-14T09:40:16.977Z,59.07
2023-02-14T09:43:01.840Z,59.00
2023-02-14T09:45:32.374Z,59.04
2023-02-14T09:48:34.460Z,58.93
2023-02-14T09:51:15.116Z,58.41
2023-02-14T09:53:51.363Z,58.14
2023-02-14T09:56:42.759Z,57.94
2023-02-14T09:59:20.033Z,57.34
2023-02-14T10:01:57.546Z,58.21
2023-02-14T10:04:40.876Z,58.67
2023-02-14T10:07:17.592Z,59.03
2023-02-14T10:10:02.986Z,59.40
2023-02-14T10:12:36.847Z,58.73
2023-02-14T10:15:19.148Z,58.75
2023-02-14T10:17:52.339Z,57.70
2023-02-14T10:20:29.277Z,56.99
2023-02-14T10:23:24.811Z,57.04
2023-02-14T10:26:25.068Z,56.51
2023-02-14T10:28:54.367Z,55.91
2023-02-14T10:31:25.671Z,56.59
2023-02-14T10:33:57.855Z,56.47
2023-02-14T10:37:07.156Z,56.84
2023-02-14T10:39:46.169Z,56.00
2023-02-14T10:42:25.507Z,55.83
2023-02-14T10:44:58.874Z,55.56
2023-02-14T10:47:53.899Z,55.23
2023-02-14T10:50:50.249Z,54.25
2023-02-14T10:53:26.842Z,53.76
2023-02-14T10:56:02.691Z,53.31
2023-02-14T10:58:36.274Z,53.54
2023-02-14T11:01:12.304Z,53.89
2023-02-14T11:03:49.294Z,53.51
2023-02-14T11:06:16.876Z,53.20
2023-02-14T11:08:44.269Z,52.62
2023-02-14T11:11:20.694Z,52.37
2023-02-14T11:13:48.608Z,51.92
2023-02-14T11:16:31.191Z,52.11
2023-02-14T11:19:24.837Z,52.60
2023-02-14T11:21:55.054Z,52.21
2023-02-14T11:24:31.816Z,52.82
2023-02-14T11:27:04.048Z,53.35
2023-02-14T11:29:57.553Z,52.27
2023-02-14T11:32:28.629Z,52.49
2023-02-14T11:35:17.376Z,52.45
2023-02-14T11:37:51.106Z,52.35
2023-02-14T11:40:39.640Z,52.07
2023-02-14T11:43:16.027Z,51.87
2023-02-14T11:45:46.333Z,52.53
2023-02-14T11:48:37.848Z,52.26
2023-02-14T11:51:14.609Z,51.93
2023-02-14T11:53:56.036Z,52.90
2023-02-14T11:56:24.527Z,52.11
2023-02-14T11:59:03.914Z,52.67
2023-02-14T12:01:35.081Z,52.52
2023-02-14T12:04:07.741Z,53.28
2023-02-14T12:06:36.701Z,54.29
2023-02-14T12:09:24.059Z,53.06
2023-02-14T12:12:16.920Z,53.82
2023-02-14T12:14:45.230Z,52.80
2023-02-14T12:17:18.973Z,53.20
2023-02-14T12:20:01.087Z,53.18
2023-02-14T12:22:35.283Z,53.35
2023-02-14T12:25:19.254Z,53.10
2023-02-14T12:27:54.686Z,53.55
2023-02-14T12:30:24.919Z,53.33
2023-02-14T12:32:56.488Z,52.17
2023-02-14T12:35:48.626Z,53.04
2023-02-14T12:38:39.629Z,53.42
2023-02-14T12:41:41.885Z,53.74
2023-02-14T12:44:34.099Z,54.38
2023-02-14T12:47:13.100Z,55.14
2023-02-14T12:49:40.545Z,54.80
2023-02-14T12:52:41.791Z,54.31
2023-02-14T12:55:34.918Z,54.43
2023-02-14T12:58:41.102Z,53.77
2023-02-14T13:01:39.061Z,52.81
2023-02-14T13:04:44.575Z,53.26
2023-02-14T13:07:12.201Z,53.67
2023-02-14T13:09:52.096Z,54.11
2023-02-14T13:12:41.903Z,54.29
2023-02-14T13:15:26.060Z,53.38
2023-02-14T13:18:05.634Z,53.84
2023-02-14T13:20:59.305Z,54.13
2023-02-14T13:23:38.605Z,52.86
2023-02-14T13:26:17.722Z,52.03
2023-02-14T13:28:52.530Z,51.46
2023-02-14T13:31:21.286Z,52.05
2023-02-14T13:33:57.048Z,51.73
2023-02-14T13:36:27.638Z,49.73
2023-02-14T13:38:58.001Z,49.10
2023-02-14T13:41:28.170Z,49.13
2023-02-14T13:43:56.815Z,49.51
2023-02-14T13:46:30.497Z,50.41
2023-02-14T13:49:05.986Z,50.55
2023-02-14T13:51:50.450Z,50.77
2023-02-14T13:54:41.250Z,50.96
2023-02-14T13:57:28.474Z,51.53
2023-02-14T14:00:17.840Z,51.18
2023-02-14T14:02:46.368Z,51.56
2023-02-14T14:05:42.982Z,51.70
2023-02-14T14:08:36.765Z,52.00
2023-02-14T14:11:11.828Z,52.60
2023-02-14T14:13:42.390Z,53.07
2023-02-14T14:16:27.436Z,52.75
2023-02-14T14:19:19.280Z,50.51
2023-02-14T14:22:05.944Z,49.86
2023-02-14T14:24:36.580Z,49.53
2023-02-14T14:27:25.556Z,48.49
2023-02-14T14:29:58.760Z,47.94
2023-02-14T14:32:32.909Z,49.00
2023-02-14T14:35:03.225Z,48.29
2023-02-14T14:37:33.478Z,49.24
2023-02-14T14:40:04.079Z,49.35
2023-02-14T14:42:37.988Z,49.24
2023-02-14T14:45:18.568Z,49.88
2023-02-14T14:47:47.593Z,49.16
2023-02-14T14:50:35.648Z,49.31
2023-02-14T14:53:06.981Z,49.13
2023-02-14T14:55:37.861Z,49.83
2023-02-14T14:58:29.368Z,49.97
2023-02-14T15:00:56.920Z,50.15
2023-02-14T15:03:27.142Z,50.41
2023-02-14T15:06:08.384Z,50.69
2023-02-14T15:08:36.300Z,50.55
2023-02-14T15:11:34.939Z,50.61
2023-02-14T15:14:05.835Z,50.58
2023-02-14T15:16:36.640Z,50.10
2023-02-14T15:19:12.982Z,50.17
2023-02-14T15:21:44.427Z,50.12
2023-02-14T15:24:16.230Z,50.40
2023-02-14T15:26:46.869Z,50.37
2023-02-14T15:29:29.561Z,50.25
2023-02-14T15:32:02.496Z,50.09
2023-02-14T15:34:36.157Z,49.60
2023-02-14T15:37:06.794Z,50.15
2023-02-14T15:39:40.482Z,50.64
2023-02-14T15:42:33.064Z,50.88
2023-02-14T15:45:28.103Z,50.74
2023-02-14T15:47:57.485Z,50.85
2023-02-14T15:50:27.981Z,50.70
2023-02-14T15:53:04.316Z,50.60
2023-02-14T15:55:33.700Z,50.97
2023-02-14T15:58:06.987Z,51.03
2023-02-14T16:00:35.740Z,50.40
2023-02-14T16:03:09.049Z,50.12
2023-02-14T16:05:36.787Z,49.83
2023-02-14T16:08:40.150Z,49.41
2023-02-14T16:11:35.547Z,48.88
2023-02-14T16:14:36.339Z,49.19
2023-02-14T16:17:06.916Z,49.48
2023-02-14T16:19:35.901Z,49.77
2023-02-14T16:22:04.571Z,49.72
2023-02-14T16:24:31.988Z,49.42
2023-02-14T16:27:06.798Z,49.31
2023-02-14T16:29:36.284Z,49.40
2023-02-14T16:32:20.305Z,50.01
2023-02-14T16:34:48.764Z,50.36
2023-02-14T16:37:23.712Z,50.54
2023-02-14T16:39:54.609Z,50.67
2023-02-14T16:42:22.208Z,50.96
2023-02-14T16:44:50.954Z,51.76
2023-02-14T16:47:20.619Z,51.88
2023-02-14T16:49:48.688Z,51.93
2023-02-14T16:52:23.895Z,52.45
2023-02-14T16:54:52.039Z,52.55
2023-02-14T16:57:35.675Z,52.92
2023-02-14T17:00:06.553Z,53.37
2023-02-14T17:02:34.752Z,53.54
2023-02-14T17:05:02.279Z,53.80
2023-02-14T17:07:33.154Z,53.93
2023-02-14T17:10:05.721Z,54.41
2023-02-14T17:12:38.495Z,54.54
2023-02-14T17:15:13.073Z,54.67
2023-02-14T17:17:41.956Z,55.23
2023-02-14T17:20:09.846Z,55.63
2023-02-14T17:22:37.857Z,56.09
2023-02-14T17:25:06.213Z,56.59
2023-02-14T17:27:33.908Z,57.19
2023-02-14T17:30:01.532Z,58.03
2023-02-14T17:32:29.233Z,58.23
2023-02-14T17:34:57.159Z,59.00
2023-02-14T17:37:24.729Z,59.63
2023-02-14T17:39:53.116Z,60.33
2023-02-14T17:42:20.851Z,61.15
2023-02-14T17:44:48.565Z,61.10
2023-02-14T17:47:18.221Z,61.22
2023-02-14T17:49:47.477Z,61.79
2023-02-14T17:52:15.878Z,62.18
2023-02-14T17:54:44.008Z,62.50
2023-02-14T17:57:12.803Z,62.61
2023-02-14T17:59:40.317Z,62.81
2023-02-14T18:02:07.812Z,63.58
2023-02-14T18:04:37.270Z,64.03
2023-02-14T18:07:05.944Z,64.10
2023-02-14T18:09:33.781Z,64.26
2023-02-14T18:12:01.381Z,64.37
2023-02-14T18:14:28.854Z,64.22
2023-02-14T18:16:56.310Z,64.69
2023-02-14T18:19:23.520Z,65.13
2023-02-14T18:21:50.717Z,65.03
2023-02-14T18:24:18.049Z,65.33
2023-02-14T18:26:46.415Z,65.83
2023-02-14T18:29:14.084Z,65.90
2023-02-14T18:31:43.425Z,66.58
2023-02-14T18:34:11.364Z,66.79
2023-02-14T18:36:41.641Z,66.93
2023-02-14T18:39:10.624Z,67.09
2023-02-14T18:41:38.259Z,68.00
2023-02-14T18:44:06.506Z,68.43
2023-02-14T18:46:35.732Z,68.51
2023-02-14T18:49:06.101Z,68.90
2023-02-14T18:51:35.967Z,69.28
2023-02-14T18:54:04.717Z,69.71
2023-02-14T18:56:35.870Z,70.27
2023-02-14T18:59:06.248Z,69.91
2023-02-14T19:01:36.893Z,70.50
2023-02-14T19:04:06.875Z,71.01
2023-02-14T19:06:35.598Z,71.03
2023-02-14T19:09:04.298Z,71.45
2023-02-14T19:11:32.816Z,71.97
2023-02-14T19:14:02.404Z,71.78
2023-02-14T19:16:34.130Z,72.33
2023-02-14T19:19:02.896Z,72.75
2023-02-14T19:21:36.890Z,73.41
2023-02-14T19:24:07.092Z,73.64
2023-02-14T19:26:40.309Z,73.53
2023-02-14T19:29:17.066Z,74.06
2023-02-14T19:31:49.949Z,74.63
2023-02-14T19:34:31.889Z,74.93
2023-02-14T19:37:01.370Z,74.98
2023-02-14T19:39:30.240Z,75.51
2023-02-14T19:41:58.700Z,75.57
2023-02-14T19:44:26.156Z,75.47
2023-02-14T19:47:00.043Z,75.71
2023-02-14T19:49:29.165Z,74.91
2023-02-14T19:51:57.289Z,75.14
2023-02-14T19:54:25.797Z,74.98
2023-02-14T19:56:54.088Z,75.10
2023-02-14T19:59:22.885Z,76.04
2023-02-14T20:01:53.090Z,75.65
2023-02-14T20:04:25.606Z,75.52
2023-02-14T20:06:54.000Z,75.38
2023-02-14T20:09:22.935Z,75.12
2023-02-14T20:11:57.870Z,75.08
2023-02-14T20:14:26.887Z,75.53
2023-02-14T20:16:56.176Z,75.65
2023-02-14T20:19:27.121Z,76.05
2023-02-14T20:21:55.033Z,75.55
2023-02-14T20:24:25.579Z,75.66
2023-02-14T20:26:53.883Z,75.89
2023-02-14T20:29:22.964Z,76.67
2023-02-14T20:31:53.164Z,75.97
2023-02-14T20:34:21.422Z,74.53
2023-02-14T20:36:56.080Z,74.90
2023-02-14T20:39:28.937Z,74.86
2023-02-14T20:41:56.738Z,75.69
2023-02-14T20:44:24.287Z,75.34
2023-02-14T20:46:53.898Z,75.16
2023-02-14T20:49:22.812Z,74.71
2023-02-14T20:51:51.445Z,74.18
2023-02-14T20:54:24.377Z,73.97
2023-02-14T20:56:52.933Z,73.48
2023-02-14T20:59:27.077Z,74.54
2023-02-14T21:01:56.704Z,74.37
2023-02-14T21:04:25.395Z,74.84
2023-02-14T21:06:53.115Z,74.56
2023-02-14T21:09:20.893Z,75.00
2023-02-14T21:11:49.665Z,74.03
2023-02-14T21:14:17.535Z,73.62
2023-02-14T21:16:45.095Z,73.97
2023-02-14T21:19:12.555Z,74.75
2023-02-14T21:21:40.282Z,75.22
2023-02-14T21:24:12.218Z,75.58
2023-02-14T21:26:40.331Z,74.80
2023-02-14T21:29:08.705Z,74.50
2023-02-14T21:31:37.085Z,74.69
2023-02-14T21:34:04.953Z,75.26
2023-02-14T21:36:37.246Z,75.12
2023-02-14T21:39:06.640Z,74.70
2023-02-14T21:41:35.697Z,74.60
2023-02-14T21:44:04.695Z,74.89
2023-02-14T21:46:36.094Z,75.49
2023-02-14T21:49:24.173Z,76.19
2023-02-14T21:51:51.748Z,77.09
2023-02-14T21:54:19.314Z,76.58
2023-02-14T21:56:46.909Z,77.01
2023-02-14T21:59:14.505Z,76.55
2023-02-14T22:01:42.640Z,76.85
2023-02-14T22:04:12.629Z,76.15
2023-02-14T22:06:41.926Z,77.11
2023-02-14T22:09:11.015Z,77.52
2023-02-14T22:11:38.639Z,78.32
2023-02-14T22:14:06.109Z,78.19
2023-02-14T22:16:36.792Z,78.68
2023-02-14T22:19:08.337Z,77.86
2023-02-14T22:21:35.807Z,77.35
2023-02-14T22:24:03.166Z,78.05
2023-02-14T22:26:40.941Z,78.73
2023-02-14T22:29:11.760Z,79.05
2023-02-14T22:31:42.499Z,78.98
2023-02-14T22:34:12.851Z,78.48
2023-02-14T22:36:40.641Z,79.45
2023-02-14T22:39:09.511Z,78.51
2023-02-14T22:41:37.999Z,78.60
2023-02-14T22:44:06.208Z,78.76
2023-02-14T22:46:33.935Z,78.76
2023-02-14T22:49:01.488Z,78.72
2023-02-14T22:51:39.350Z,79.74
2023-02-14T22:54:15.399Z,79.69
2023-02-14T22:56:45.680Z,79.94
2023-02-14T22:59:24.412Z,79.57
2023-02-14T23:01:53.453Z,79.92
2023-02-14T23:04:22.483Z,80.08
2023-02-14T23:06:52.075Z,80.33
2023-02-14T23:09:20.086Z,80.06
2023-02-14T23:11:48.827Z,80.46
2023-02-14T23:14:36.288Z,81.56
2023-02-14T23:17:23.796Z,81.60
2023-02-14T23:20:10.328Z,80.87
2023-02-14T23:22:39.582Z,80.79
2023-02-14T23:25:12.336Z,81.10
2023-02-14T23:27:44.249Z,80.91
2023-02-14T23:30:15.770Z,82.24
2023-02-14T23:32:44.023Z,83.01
2023-02-14T23:35:11.671Z,82.72
2023-02-14T23:37:39.347Z,82.57
2023-02-14T23:40:07.565Z,83.46
2023-02-14T23:42:35.147Z,83.40
2023-02-14T23:45:21.233Z,81.82
2023-02-14T23:47:48.815Z,82.45
2023-02-14T23:50:16.271Z,82.47
2023-02-14T23:52:44.714Z,82.94
2023-02-14T23:55:12.854Z,82.58
2023-02-14T23:57:40.372Z,81.49
